createdAt,value
2023-04-07T00:04:53.964Z,9.30
2023-04-07T00:14:56.511Z,9.40
2023-04-07T00:19:58.931Z,9.40
2023-04-07T00:32:35.383Z,9.30
2023-04-07T00:35:06.363Z,9.30
2023-04-07T00:45:11.661Z,8.50
2023-04-07T00:50:20.832Z,9.40
2023-04-07T00:52:50.818Z,9.30
2023-04-07T00:55:21.927Z,9.30
2023-04-07T01:03:00.584Z,9.10
2023-04-07T01:05:43.122Z,9.10
2023-04-07T01:08:22.668Z,9.10
2023-04-07T01:10:57.605Z,9.00
2023-04-07T01:13:39.704Z,9.00
2023-04-07T01:16:28.329Z,9.00
2023-04-07T01:18:59.071Z,9.00
2023-04-07T01:21:31.120Z,8.90
2023-04-07T01:24:30.155Z,8.90
2023-04-07T01:27:07.399Z,8.90
2023-04-07T01:29:43.638Z,8.80
2023-04-07T01:32:13.374Z,8.80
2023-04-07T01:34:43.484Z,4.80
2023-04-07T01:37:19.211Z,8.80
2023-04-07T01:42:23.353Z,8.80
2023-04-07T01:44:54.192Z,8.70
2023-04-07T02:02:25.547Z,8.60
2023-04-07T02:04:56.948Z,8.60
2023-04-07T02:07:33.017Z,8.60
2023-04-07T02:10:06.082Z,8.60
2023-04-07T02:15:13.613Z,8.50
2023-04-07T02:17:49.916Z,5.20
2023-04-07T02:20:26.671Z,6.60
2023-04-07T02:25:25.840Z,8.40
2023-04-07T02:27:56.395Z,8.50
2023-04-07T02:32:55.419Z,8.50
2023-04-07T02:45:35.635Z,8.40
2023-04-07T02:48:14.021Z,8.40
2023-04-07T02:53:26.140Z,8.40
2023-04-07T02:58:32.802Z,8.40
2023-04-07T03:03:39.578Z,8.40
2023-04-07T03:06:33.639Z,8.40
2023-04-07T03:12:06.621Z,8.40
2023-04-07T03:14:44.797Z,8.50
2023-04-07T03:17:37.656Z,8.40
2023-04-07T03:20:17.470Z,8.50
2023-04-07T03:27:56.432Z,8.40
2023-04-07T03:35:27.859Z,8.10
2023-04-07T03:42:56.328Z,8.40
2023-04-07T03:46:04.588Z,8.30
2023-04-07T03:51:20.045Z,8.20
2023-04-07T03:53:54.211Z,8.20
2023-04-07T04:06:45.672Z,8.10
2023-04-07T04:16:55.129Z,11.20
2023-04-07T04:22:08.764Z,7.90
2023-04-07T04:27:22.442Z,7.90
2023-04-07T04:37:37.542Z,7.90
2023-04-07T04:40:31.708Z,7.70
2023-04-07T04:45:37.434Z,7.90
2023-04-07T04:53:18.332Z,7.80
2023-04-07T04:55:53.555Z,7.80
2023-04-07T05:09:14.415Z,7.70
2023-04-07T05:22:19.419Z,7.70
2023-04-07T05:24:50.928Z,7.70
2023-04-07T05:32:30.545Z,7.60
2023-04-07T05:40:12.712Z,7.60
2023-04-07T05:45:21.504Z,10.10
2023-04-07T05:55:38.117Z,7.60
2023-04-07T06:09:09.942Z,7.60
2023-04-07T06:11:39.674Z,7.60
2023-04-07T06:14:09.356Z,7.70
2023-04-07T06:21:44.053Z,7.70
2023-04-07T06:26:46.654Z,7.70
2023-04-07T06:39:22.814Z,7.70
2023-04-07T06:42:01.704Z,7.70
2023-04-07T07:16:30.337Z,7.80
2023-04-07T07:19:01.217Z,7.80
2023-04-07T07:33:54.217Z,7.80
2023-04-07T07:36:26.770Z,7.80
2023-04-07T07:48:54.059Z,7.90
2023-04-07T08:01:22.398Z,8.30
2023-04-07T08:06:22.005Z,8.40
2023-04-07T08:11:22.201Z,8.60
2023-04-07T08:16:31.488Z,8.70
2023-04-07T08:21:29.792Z,8.80
2023-04-07T08:27:03.206Z,8.90
2023-04-07T08:36:59.191Z,9.20
2023-04-07T08:44:29.288Z,9.40
2023-04-07T08:47:03.518Z,9.40
2023-04-07T08:49:34.134Z,9.50
2023-04-07T08:52:09.623Z,9.40
2023-04-07T08:57:18.116Z,9.70
2023-04-07T09:02:20.464Z,10.00
2023-04-07T09:07:29.413Z,10.20
2023-04-07T09:10:01.064Z,10.40
2023-04-07T09:12:32.094Z,10.40
2023-04-07T09:19:58.622Z,10.60
2023-04-07T09:22:38.277Z,10.70
2023-04-07T09:25:15.439Z,10.80
2023-04-07T09:30:14.750Z,14.80
2023-04-07T09:35:35.046Z,11.10
2023-04-07T09:38:07.326Z,11.30
2023-04-07T09:40:45.222Z,11.40
2023-04-07T09:43:19.141Z,11.50
2023-04-07T09:48:20.685Z,11.70
2023-04-07T09:50:51.083Z,11.70
2023-04-07T09:53:21.376Z,11.80
2023-04-07T10:00:52.249Z,11.90
2023-04-07T10:08:25.075Z,11.90
2023-04-07T10:13:34.711Z,11.90
2023-04-07T10:16:05.959Z,11.90
2023-04-07T10:18:38.042Z,11.90
2023-04-07T10:21:10.702Z,11.90
2023-04-07T10:23:54.320Z,11.90
2023-04-07T10:26:30.485Z,12.00
2023-04-07T10:29:20.867Z,13.50
2023-04-07T10:31:53.795Z,12.00
2023-04-07T10:34:58.357Z,12.00
2023-04-07T10:37:28.112Z,12.10
2023-04-07T10:40:29.449Z,12.10
2023-04-07T10:42:59.053Z,12.10
2023-04-07T10:45:59.857Z,12.10
2023-04-07T10:48:33.430Z,12.10
2023-04-07T10:51:18.304Z,9.40
2023-04-07T10:54:21.041Z,12.30
2023-04-07T10:57:14.541Z,12.30
2023-04-07T11:00:22.136Z,12.40
2023-04-07T11:05:23.577Z,12.60
2023-04-07T11:07:57.748Z,12.70
2023-04-07T11:10:29.327Z,12.80
2023-04-07T11:13:06.270Z,16.80
2023-04-07T11:15:40.404Z,12.80
2023-04-07T11:18:17.492Z,12.80
2023-04-07T11:20:48.446Z,12.90
2023-04-07T11:23:23.021Z,12.90
2023-04-07T11:25:52.363Z,12.90
2023-04-07T11:30:54.433Z,12.90
2023-04-07T11:33:28.253Z,12.90
2023-04-07T11:35:59.486Z,12.80
2023-04-07T11:38:29.052Z,12.80
2023-04-07T11:40:58.258Z,12.70
2023-04-07T11:43:31.269Z,12.60
2023-04-07T11:46:11.994Z,12.50
2023-04-07T11:48:42.031Z,12.40
2023-04-07T11:51:30.597Z,12.40
2023-04-07T12:01:42.834Z,12.60
2023-04-07T12:04:14.791Z,12.60
2023-04-07T12:09:30.665Z,12.70
2023-04-07T12:12:00.046Z,12.80
2023-04-07T12:14:31.879Z,12.90
2023-04-07T12:17:03.487Z,12.90
2023-04-07T12:19:40.242Z,12.90
2023-04-07T12:32:19.438Z,12.90
2023-04-07T12:35:16.660Z,12.90
2023-04-07T12:47:47.609Z,13.00
2023-04-07T12:55:17.633Z,12.90
2023-04-07T13:00:15.344Z,12.90
2023-04-07T13:05:13.949Z,9.50
2023-04-07T13:17:41.523Z,12.30
2023-04-07T13:20:21.013Z,12.90
2023-04-07T13:28:08.549Z,13.00
2023-04-07T13:33:23.791Z,13.10
2023-04-07T13:35:57.112Z,13.00
2023-04-07T13:38:26.670Z,13.10
2023-04-07T13:50:55.491Z,13.10
2023-04-07T14:06:32.501Z,13.00
2023-04-07T14:23:58.782Z,12.90
2023-04-07T14:39:00.235Z,12.90
2023-04-07T14:46:27.525Z,12.90
2023-04-07T14:56:30.800Z,12.90
2023-04-07T15:01:39.983Z,12.90
2023-04-07T15:12:20.786Z,12.80
2023-04-07T15:15:00.720Z,12.80
2023-04-07T15:27:42.353Z,12.70
2023-04-07T15:35:11.535Z,14.00
2023-04-07T15:37:50.744Z,12.60
2023-04-07T15:43:14.880Z,12.60
2023-04-07T15:45:49.690Z,12.60
2023-04-07T15:48:21.458Z,12.50
2023-04-07T15:58:17.358Z,12.50
2023-04-07T16:13:27.341Z,12.50
2023-04-07T16:15:57.879Z,12.50
2023-04-07T16:28:35.454Z,12.40
2023-04-07T16:36:09.005Z,10.30
2023-04-07T16:41:12.472Z,12.30
2023-04-07T16:43:44.943Z,12.30
2023-04-07T16:46:13.277Z,9.00
2023-04-07T16:48:44.465Z,12.30
2023-04-07T16:51:20.348Z,12.30
2023-04-07T16:59:03.895Z,12.20
2023-04-07T17:01:44.851Z,12.30
2023-04-07T17:11:45.339Z,14.00
2023-04-07T17:14:17.510Z,12.20
2023-04-07T17:26:46.859Z,12.10
2023-04-07T17:29:16.726Z,12.10
2023-04-07T17:39:13.541Z,12.00
2023-04-07T17:41:44.451Z,12.00
2023-04-07T17:46:44.157Z,12.00
2023-04-07T17:49:19.160Z,12.00
2023-04-07T17:52:09.839Z,9.70
2023-04-07T17:57:46.845Z,8.30
2023-04-07T18:02:46.529Z,11.90
2023-04-07T18:07:45.852Z,11.80
2023-04-07T18:13:11.722Z,11.80
2023-04-07T18:18:10.198Z,11.80
2023-04-07T18:20:49.018Z,11.80
2023-04-07T18:30:11.784Z,11.80
2023-04-07T18:35:11.005Z,11.70
2023-04-07T18:42:48.191Z,11.90
2023-04-07T18:50:15.464Z,11.70
2023-04-07T18:55:39.838Z,11.70
2023-04-07T19:05:48.014Z,11.60
2023-04-07T19:08:18.902Z,11.70
2023-04-07T19:13:23.620Z,11.70
2023-04-07T19:15:54.526Z,16.50
2023-04-07T19:21:04.946Z,11.70
2023-04-07T19:36:13.515Z,11.60
2023-04-07T19:39:08.035Z,11.60
2023-04-07T19:46:36.933Z,11.50
2023-04-07T19:51:38.370Z,11.50
2023-04-07T19:59:52.448Z,11.40
2023-04-07T20:07:20.863Z,11.50
2023-04-07T20:14:57.128Z,11.40
2023-04-07T20:18:04.933Z,11.40
2023-04-07T20:23:04.189Z,11.40
2023-04-07T20:31:30.561Z,11.40
2023-04-07T20:34:52.379Z,11.40
2023-04-07T20:37:27.983Z,11.30
2023-04-07T20:40:04.724Z,11.30
2023-04-07T20:42:42.905Z,11.40
2023-04-07T20:45:12.896Z,11.30
2023-04-07T20:47:44.294Z,11.30
2023-04-07T20:55:23.462Z,11.30
2023-04-07T21:10:22.836Z,11.20
2023-04-07T21:25:41.850Z,11.10
2023-04-07T21:30:41.717Z,11.10
2023-04-07T21:40:48.124Z,10.90
2023-04-07T21:56:04.013Z,10.70
2023-04-07T21:58:34.702Z,6.70
2023-04-07T22:08:48.854Z,10.60
2023-04-07T22:11:42.479Z,10.50
2023-04-07T22:14:23.508Z,10.50
2023-04-07T22:16:54.946Z,10.50
2023-04-07T22:19:55.564Z,11.10
2023-04-07T22:27:37.191Z,10.40
2023-04-07T22:30:11.532Z,7.00
2023-04-07T22:32:46.133Z,13.30
2023-04-07T22:43:25.332Z,11.50
2023-04-07T22:45:58.760Z,10.20
2023-04-07T22:51:07.887Z,11.90
2023-04-07T22:56:28.991Z,10.10
2023-04-07T22:59:05.773Z,10.10
2023-04-07T23:14:07.005Z,9.90
2023-04-07T23:25:23.617Z,9.80
2023-04-07T23:30:26.409Z,9.70
2023-04-07T23:45:32.195Z,9.60
2023-04-07T23:50:31.308Z,7.80
